METAR Data
IDs: Format: Raw Decoded Include TAF

Data at: 2110 UTC 19 May 2019

KFFL 192055Z AUTO 28016G23KT 10SM BKN023 OVC028 15/12 A2976 RMK AO2 PWINO
KFFL 192035Z AUTO 26014G20KT 10SM OVC023 16/12 A2975 RMK AO2 PWINO
KFFL 192015Z AUTO 26013G24KT 10SM BKN024 OVC035 16/12 A2974 RMK AO2 PWINO
KFFL 191955Z AUTO 25015G23KT 10SM FEW021 SCT026 OVC033 17/12 A2973 RMK AO2 PWINO
KFFL 191935Z AUTO 25016G25KT 10SM SCT022 BKN027 OVC032 17/13 A2972 RMK AO2 PWINO
KFFL 191915Z AUTO 25015G21KT 10SM SCT021 SCT027 BKN032 18/14 A2971 RMK AO2 PWINO
KFFL 191855Z AUTO 28018G23KT 10SM SCT019 BKN024 OVC032 18/14 A2970 RMK AO2 PWINO
KFFL 191835Z AUTO 27017KT 10SM BKN019 BKN024 OVC055 18/14 A2969 RMK AO2 PWINO
KFFL 191815Z AUTO 29014G26KT 10SM FEW018 SCT028 BKN042 18/14 A2969 RMK AO2 PWINO
KFFL 191755Z AUTO 27016G26KT 10SM BKN020 OVC030 18/14 A2967 RMK AO2 PWINO
KFFL 191735Z AUTO 25010G16KT 10SM SCT019 BKN024 OVC040 19/15 A2966 RMK AO2 PWINO
KFFL 191715Z AUTO 26010G16KT 10SM BKN020 BKN026 OVC120 18/15 A2966 RMK AO2 PWINO
KFFL 191655Z AUTO 28013KT 10SM SCT018 BKN024 BKN029 18/15 A2965 RMK AO2 PWINO
KFFL 191635Z AUTO 27011G16KT 10SM SCT015 BKN029 OVC070 18/15 A2964 RMK AO2 PWINO
KFFL 191615Z AUTO 25011KT 10SM SCT014 BKN030 OVC075 17/15 A2964 RMK AO2 PWINO
KFFL 191555Z AUTO 25009KT 7SM BKN015 OVC020 16/15 A2963 RMK AO2 PWINO
KFFL 191535Z AUTO 25010KT 10SM OVC014 16/14 A2963 RMK AO2 PWINO
KFFL 191515Z AUTO 24007G12KT 10SM OVC015 16/15 A2962 RMK AO2 PWINO
KFFL 191455Z AUTO 25010KT 9SM BKN015 BKN019 16/15 A2962 RMK AO2 PWINO
KFFL 191435Z AUTO 24007KT 10SM SCT011 BKN018 BKN080 16/15 A2961 RMK AO2 PWINO
KFFL 191415Z AUTO 26006KT 10SM SCT010 BKN016 BKN085 16/15 A2960 RMK AO2 PWINO
KFFL 191355Z AUTO 25007KT 10SM BKN011 OVC016 16/15 A2958 RMK AO2 P0003 PWINO
KFFL 191335Z AUTO 25004G11KT 10SM BKN009 BKN013 BKN020 15/15 A2957 RMK AO2 PWINO
KFFL 191315Z AUTO VRB03G11KT 6SM BR FEW007 SCT030 BKN080 15/15 A2955 RMK AO2 PWINO
KFFL 191255Z AUTO 27012KT 2 1/2SM BR SCT004 BKN022 OVC060 16/15 A2956 RMK AO2 P0014 PWINO
KFFL 191235Z AUTO 22013KT 2 1/2SM BR FEW004 BKN021 OVC055 16/16 A2957 RMK AO2 VIS 1 1/4V4 PWINO
KFFL 191215Z AUTO 20004KT 16/16 A2954 RMK AO2 PWINO
KFFL 191155Z AUTO 23003KT 10SM BKN060 BKN085 OVC120 16/16 A2954 RMK AO2 PWINO
KFFL 191135Z AUTO 27006KT 10SM FEW012 SCT037 BKN060 16/16 A2954 RMK AO2 PWINO
KFFL 191115Z AUTO 27007KT 10SM SCT010 BKN014 OVC036 16/16 A2955 RMK AO2 PWINO
KFFL 191055Z AUTO VRB06KT 10SM SCT007 OVC012 17/17 A2954 RMK AO2 PWINO
KFFL 191035Z AUTO 22005KT 10SM OVC010 17/16 A2955 RMK AO2 PWINO
KFFL 191015Z AUTO 21007KT 10SM BKN009 BKN055 OVC090 17/16 A2955 RMK AO2 PWINO
KFFL 190955Z AUTO 22009KT 9SM FEW012 SCT060 OVC095 17/16 A2954 RMK AO2 P0003 PWINO
KFFL 190935Z AUTO 24008G14KT 6SM BR SCT010 BKN070 OVC100 17/16 A2953 RMK AO2 PWINO
KFFL 190915Z AUTO 23011G17KT 9SM SCT009 BKN020 OVC036 18/17 A2955 RMK AO2 PWINO
KFFL 190855Z AUTO 21013G19KT 10SM OVC036 18/17 A2955 RMK AO2 PWINO
KFFL 190835Z AUTO 21010KT 10SM OVC034 18/17 A2954 RMK AO2 PWINO
KFFL 190815Z AUTO 21012KT 10SM OVC033 18/17 A2954 RMK AO2 PWINO
KFFL 190755Z AUTO 21010KT 10SM FEW012 OVC032 18/17 A2954 RMK AO2 PWINO
KFFL 190735Z AUTO 21013KT 10SM SCT018 OVC031 18/17 A2953 RMK AO2 PWINO
KFFL 190715Z AUTO 21010KT 10SM SCT011 OVC019 18/17 A2954 RMK AO2 PWINO
KFFL 190655Z AUTO 21012KT 10SM BKN012 OVC020 18/17 A2955 RMK AO2 PWINO
KFFL 190635Z AUTO 21011G17KT 10SM BKN012 OVC017 18/17 A2955 RMK AO2 PWINO
KFFL 190615Z AUTO 20014KT 10SM BKN012 OVC017 18/17 A2955 RMK AO2 PWINO
KFFL 190555Z AUTO 20013KT 10SM BKN012 OVC016 18/17 A2956 RMK AO2 PWINO
KFFL 190535Z AUTO 21013G21KT 10SM OVC012 18/17 A2955 RMK AO2 PWINO
KFFL 190515Z AUTO 20015KT 10SM BKN010 OVC016 18/18 A2955 RMK AO2 PWINO
KFFL 190455Z AUTO 19015G23KT 10SM BKN008 OVC012 18/18 A2956 RMK AO2 PWINO
KFFL 190435Z AUTO 18015G22KT 10SM BKN008 BKN012 18/18 A2954 RMK AO2 PWINO
KFFL 190415Z AUTO 17013G20KT 10SM SCT007 BKN011 18/18 A2955 RMK AO2 PWINO
KFFL 190355Z AUTO 15011KT 10SM SCT007 BKN100 18/18 A2953 RMK AO2 PWINO
KFFL 190335Z AUTO 13009KT 10SM SCT004 OVC100 18/18 A2953 RMK AO2 PWINO
KFFL 190315Z AUTO 11010KT 10SM OVC003 18/18 A2954 RMK AO2 PWINO
KFFL 190255Z AUTO 13006KT 9SM BKN003 BKN010 OVC040 18/18 A2955 RMK AO2 P0009 PWINO
KFFL 190235Z AUTO 03006G13KT 8SM FEW004 SCT025 BKN040 18/18 A2957 RMK AO2 PWINO
KFFL 190215Z AUTO 05011KT 9SM FEW002 BKN029 OVC070 18/18 A2957 RMK AO2 PWINO
KFFL 190155Z AUTO 03010KT 5SM BR FEW003 BKN032 OVC041 18/18 A2958 RMK AO2 P0016 PWINO
KFFL 190135Z AUTO 02013KT 4SM BR FEW003 SCT022 BKN026 18/18 A2958 RMK AO2 PWINO
KFFL 190115Z AUTO 32009KT 3SM BR OVC024 19/18 A2961 RMK AO2 PWINO
KFFL 190055Z AUTO 32011KT 7SM OVC022 19/18 A2960 RMK AO2 P0001 PWINO
KFFL 190035Z AUTO 31009G21KT 10SM BKN021 OVC029 19/17 A2961 RMK AO2 PWINO
KFFL 190015Z AUTO 29011KT 240V320 10SM FEW014 BKN021 OVC055 21/18 A2961 RMK AO2 PWINO
KFFL 182355Z AUTO 24011G16KT 190V260 10SM OVC055 19/18 A2962 RMK AO2 PWINO
KFFL 182335Z AUTO 11013KT 10SM OVC060 19/18 A2959 RMK AO2 PWINO
KFFL 182315Z AUTO 11012KT 10SM OVC060 20/19 A2960 RMK AO2 PWINO
KFFL 182255Z AUTO 12014KT 10SM FEW003 SCT030 OVC055 21/19 A2960 RMK AO2 P0016 PWINO
KFFL 182235Z AUTO 14012G20KT 1 3/4SM BR SCT008 BKN030 OVC045 21/20 A2961 RMK AO2 PWINO
KFFL 182215Z AUTO 16012G19KT 8SM BKN015 BKN031 OVC110 21/20 A2961 RMK AO2 PWINO
KFFL 182155Z AUTO 15019KT 7SM BKN018 OVC030 22/20 A2962 RMK AO2 PWINO
KFFL 182135Z AUTO 15012G17KT 10SM FEW020 OVC028 23/19 A2962 RMK AO2 PWINO
KFFL 182115Z AUTO 16009G15KT 10SM FEW021 OVC030 23/19 A2963 RMK AO2 PWINO
KFFL 182055Z AUTO 17011G20KT 10SM FEW021 OVC031 23/19 A2964 RMK AO2 PWINO
KFFL 182035Z AUTO 17016G24KT 10SM BKN021 BKN025 BKN031 24/19 A2964 RMK AO2 PWINO
KFFL 182015Z AUTO 17016G24KT 10SM FEW021 25/19 A2963 RMK AO2 PWINO
KFFL 181955Z AUTO 15017G23KT 10SM FEW022 25/19 A2963 RMK AO2 PWINO
KFFL 181935Z AUTO 18017G23KT 10SM CLR 25/19 A2964 RMK AO2 PWINO
KFFL 181915Z AUTO 17017KT 10SM CLR 25/19 A2963 RMK AO2 PWINO
KFFL 181855Z AUTO 18013KT 10SM CLR 24/19 A2962 RMK AO2 PWINO
KFFL 181835Z AUTO 18014KT 10SM CLR 24/19 A2961 RMK AO2 PWINO
KFFL 181815Z AUTO 19015KT 10SM CLR 23/19 A2963 RMK AO2 PWINO
KFFL 181755Z AUTO 18011G18KT 10SM CLR 23/19 A2963 RMK AO2 PWINO
KFFL 181735Z AUTO 17017KT 10SM CLR 23/19 A2964 RMK AO2 PWINO
KFFL 181715Z AUTO 17014G22KT 10SM CLR 22/19 A2965 RMK AO2 PWINO
KFFL 181655Z AUTO 16017KT 10SM CLR 22/19 A2966 RMK AO2 PWINO
KFFL 181635Z AUTO 17015KT 10SM CLR 21/19 A2966 RMK AO2 PWINO
KFFL 181615Z AUTO 14011KT 10SM CLR 20/18 A2964 RMK AO2 PWINO
KFFL 181555Z AUTO 16010G15KT 10SM CLR 20/18 A2965 RMK AO2 PWINO
KFFL 181535Z AUTO 14009KT 10SM CLR 19/18 A2965 RMK AO2 PWINO
KFFL 181515Z AUTO 19008KT 10SM CLR 19/18 A2969 RMK AO2 PWINO
KFFL 181455Z AUTO 21010KT 9SM FEW039 FEW120 19/18 A2972 RMK AO2 PWINO
KFFL 181435Z AUTO 22009KT 10SM FEW037 SCT120 SCT140 18/18 A2972 RMK AO2 PWINO
KFFL 181415Z AUTO 21009KT 6SM BR BKN035 BKN060 OVC140 18/17 A2972 RMK AO2 PWINO
KFFL 181355Z AUTO 21009G17KT 8SM SCT028 BKN055 OVC120 19/16 A2972 RMK AO2 P0001 PWINO
KFFL 181335Z AUTO 22015G20KT 10SM FEW026 SCT047 BKN065 19/16 A2971 RMK AO2 PWINO
KFFL 181315Z AUTO 21010KT 8SM FEW038 SCT044 BKN050 19/16 A2970 RMK AO2 PWINO
KFFL 181255Z AUTO 21011KT 10SM SCT039 BKN044 OVC080 19/16 A2969 RMK AO2 PWINO
KFFL 181235Z AUTO 18009KT 10SM BKN040 BKN050 OVC080 19/16 A2968 RMK AO2 PWINO
KFFL 181215Z AUTO 17009G15KT 5SM HZ BKN039 BKN050 OVC070 19/16 A2968 RMK AO2 PWINO
KFFL 181155Z AUTO 15009KT 10SM SCT050 SCT070 BKN090 19/16 A2968 RMK AO2 PWINO
KFFL 181135Z AUTO 14007KT 10SM FEW075 FEW085 17/16 A2969 RMK AO2 PWINO
KFFL 181115Z AUTO 14006KT 10SM FEW060 FEW070 SCT085 17/16 A2970 RMK AO2 PWINO
KFFL 181055Z AUTO 13006KT 7SM SCT060 BKN070 BKN080 16/15 A2970 RMK AO2 PWINO
KFFL 181035Z AUTO 12006KT 5SM BR BKN070 OVC150 15/15 A2972 RMK AO2 PWINO
KFFL 181015Z AUTO 12007KT 5SM BR BKN065 BKN140 BKN160 15/15 A2972 RMK AO2 PWINO
KFFL 180955Z AUTO 11007KT 4SM BR SCT060 BKN150 BKN170 15/15 A2972 RMK AO2 PWINO
KFFL 180935Z AUTO 11006KT 3SM BR SCT160 14/14 A2973 RMK AO2 PWINO
KFFL 180915Z AUTO 10007KT 2 1/2SM BR FEW002 FEW160 14/14 A2972 RMK AO2 PWINO